Meteo Giornale » Osservazioni meteo Italia » Catania-Sigonella

ore: 02:55 - Osservazioni Meteo Catania-Sigonella
Lat. 37° 24' N Lon. 14° 55' E Alt. 22 metri s.l.m.

sereno Europe/Rome

24 °C

Sereno

Temp. 24 Ore

23 °C

41 °C

Nord

0 Km/h

Dew point 20 °C

Umidità 78 %

Visibilità  10 Km

Il sole sorge alle ore 06:06

Il sole tramonta alle ore 20:05

Data e Ora Cielo e Fenomeni T °C DP °C Um. % Pres. hPa Vis. km Vento km/h
Oggi h: 02:55 sereno Sereno 24 20 78 1013 10 N 0
Oggi h: 01:55 sereno Sereno 26 26 100 1013 10 N 0
Oggi h: 00:55 sereno Sereno 26 26 100 1013 10 N 0
Ieri h: 23:55 sereno Sereno 27 27 100 1013 10 N 0
Ieri h: 22:55 sereno Sereno 27 27 100 1013 10 N 0
Ieri h: 21:55 sereno Sereno 29 29 100 1013 10 N 0
Ieri h: 20:55 sereno Sereno 30 28 89 1013 10 N 0
Ieri h: 19:55 sereno Sereno 36 24 50 1012 10 N 0
Ieri h: 17:55 sereno Sereno 39 22 37 1013 10 N 0
Ieri h: 16:55 sereno Sereno 36 22 44 1013 10 N 0
Ieri h: 15:55 sereno Sereno 37 22 42 1013 10 N 0
Ieri h: 13:55 sereno Sereno 41 6 12 1013 10 N 0
Ieri h: 12:55 sereno Sereno 40 12 19 1014 10 N 0
Ieri h: 11:55 sereno Sereno 39 11 18 1014 10 N 0
Ieri h: 10:55 sereno Sereno 35 14 28 1014 10 N 0
Ieri h: 09:55 sereno Sereno 33 17 38 1014 10 N 0
Ieri h: 08:55 sereno Sereno 29 18 51 1014 10 N 0
Ieri h: 07:55 sereno Sereno 25 20 73 1014 10 N 0
Ieri h: 06:55 sereno Sereno 25 20 73 1014 10 N 0
Ieri h: 05:55 sereno Sereno 24 20 78 1014 10 N 0
Ieri h: 04:55 sereno Sereno 23 23 100 1014 10 N 0